Terminal Aerodrome Forecast
Issued by NWS La Crosse, WI

Home | Current Version | Previous Version | Text Only | Print | Product List | Glossary On
Versions: 1 2 3 4 5 6 7 8 9 10 11 12 13 14 15 16 17 18
000
FTUS43 KARX 162323
TAFRST
TAF
KRST 162323Z 1700/1724 15018G26KT P6SM -RA OVC050
     FM170500 13018KT P6SM -RA OVC015
      TEMPO 1705/1707 4SM -RA OVC010
     FM170700 28016G22KT P6SM OVC008
     FM171200 30015G23KT P6SM OVC010
     FM171700 32015KT P6SM SCT015=

USA.gov is the U.S. government's official web portal to all federal, state and local government web resources and services.